Portada
METAR-TAF:

METAR-TAF

Aeropuertos :

Aeropuerto de Gibraltar

Gibraltar, Gibraltar

latitud: 36-09N, longitud: 005-21W, altitud: 5 m

Observación

El informe se hizo hace 16 minutos, a las 18:50 UTC
Viento 10 kt del oeste
Temperatura 21°C
Humedad 56%
Presión 1011 hPa
Visibilidad 10 km o más
sin nubes por debajo de 1500 m y sin presencia de cumulonimbus.

METAR: LXGB 241850Z 26010KT CAVOK 21/12 Q1011 BLU NOSIG

Hora: 21:06 (19:06 UTC)

Pronóstico

El informe se hizo hace 2 horas y 35 minutos, a las 16:31 UTC
Pronóstico válido del 24 a las 18 UTC al 24 a las 22 UTC
Viento 15 kt del oeste
Visibilidad 10 km o más
sin nubes por debajo de 1500 m y sin presencia de cumulonimbus.

TAF: LXGB 241631Z 2418/2422 26015KT CAVOK

Observaciones y pronósticos meteorológicos de más de 4000 aeropuertos (mensajes METAR y TAF).

Los puntos amarillos y rojos representan las estaciones disponibles.

Ponga el ratón en el punto deseado para ver el nombre de la estación.

Haga clic para ver las observaciones y los pronósticos meteorológicos.

Para cambiar el mapa : haga clic en los botones verdes con una cruz de color negro para hacer un zoom, en el botón verde con un guión para alejar o en las flechas verdes para mapas adyacentes.


METAR-TAF: